createdAt,value
2019-06-08T00:07:27.215Z,14.9
2019-06-08T00:17:38.349Z,14.9
2019-06-08T00:27:42.815Z,14.8
2019-06-08T00:37:46.245Z,14.9
2019-06-08T00:47:49.696Z,14.8
2019-06-08T00:57:53.194Z,14.7
2019-06-08T01:07:56.633Z,14.7
2019-06-08T01:18:03.554Z,14.7
2019-06-08T01:28:07.836Z,14.6
2019-06-08T01:38:11.317Z,29.2
2019-06-08T01:48:19.772Z,14.6
2019-06-08T01:58:25.687Z,14.6
2019-06-08T02:08:30.702Z,14.6
2019-06-08T02:18:43.667Z,14.6
2019-06-08T02:28:54.697Z,14.7
2019-06-08T02:38:58.139Z,14.7
2019-06-08T02:49:04.368Z,14.6
2019-06-08T02:59:08.657Z,14.6
2019-06-08T03:09:12.119Z,14.6
2019-06-08T03:19:21.432Z,14.5
2019-06-08T03:29:26.586Z,14.5
2019-06-08T03:39:30.040Z,14.6
2019-06-08T03:49:42.341Z,14.6
2019-06-08T04:00:01.209Z,14.6
2019-06-08T04:10:04.673Z,14.7
2019-06-08T04:20:11.381Z,14.6
2019-06-08T04:30:16.075Z,14.6
2019-06-08T04:40:19.586Z,14.6
2019-06-08T04:50:24.122Z,14.8
2019-06-08T05:00:31.264Z,14.7
2019-06-08T05:10:34.999Z,14.8
2019-06-08T05:20:41.045Z,14.9
2019-06-08T05:30:54.300Z,15.1
2019-06-08T05:40:57.744Z,15.2
2019-06-08T05:51:04.074Z,15.1
2019-06-08T06:01:08.088Z,15.3
2019-06-08T06:11:11.587Z,15.4
2019-06-08T06:21:15.025Z,15.6
2019-06-08T06:31:18.470Z,15.9
2019-06-08T06:41:21.963Z,17.1
2019-06-08T06:51:26.741Z,17.7
2019-06-08T07:01:30.402Z,18.4
2019-06-08T07:11:33.912Z,18.9
2019-06-08T07:21:41.491Z,19.3
2019-06-08T07:31:46.675Z,19.6
2019-06-08T07:41:56.629Z,19.8
2019-06-08T07:52:09.397Z,20.2
2019-06-08T08:02:14.506Z,20.2
2019-06-08T08:12:17.966Z,20.5
2019-06-08T08:22:25.775Z,20.6
2019-06-08T08:32:33.129Z,20.8
2019-06-08T08:42:38.490Z,20.8
2019-06-08T08:52:42.543Z,21.1
2019-06-08T09:02:45.983Z,21.3
2019-06-08T09:12:53.784Z,21.1
2019-06-08T09:23:14.834Z,20.9
2019-06-08T09:33:25.418Z,21.2
2019-06-08T09:43:29.080Z,21.3
2019-06-08T09:53:37.378Z,21.9
2019-06-08T10:03:48.071Z,22.2
2019-06-08T10:13:51.762Z,22.4
2019-06-08T10:23:58.223Z,22.1
2019-06-08T10:34:12.609Z,22.3
2019-06-08T10:44:18.229Z,22.6
2019-06-08T10:54:21.993Z,22.7
2019-06-08T11:04:25.497Z,22.8
2019-06-08T11:14:31.963Z,22.5
2019-06-08T11:24:35.461Z,22.6
2019-06-08T11:34:42.121Z,23.1
2019-06-08T11:44:47.916Z,23.3
2019-06-08T11:54:57.303Z,23.3
2019-06-08T12:05:12.254Z,22.7
2019-06-08T12:15:21.057Z,22.8
2019-06-08T12:25:24.734Z,23.1
2019-06-08T12:35:28.401Z,23.2
2019-06-08T12:45:31.880Z,23.3
2019-06-08T12:55:37.533Z,23.3
2019-06-08T13:05:41.207Z,23.3
2019-06-08T13:15:44.660Z,23.2
2019-06-08T13:25:48.319Z,23.3
2019-06-08T13:35:51.800Z,23.1
2019-06-08T13:45:58.036Z,23.1
2019-06-08T13:56:01.878Z,23.2
2019-06-08T14:06:07.498Z,23.1
2019-06-08T14:16:11.465Z,22.9
2019-06-08T14:26:15.228Z,22.9
2019-06-08T14:36:21.450Z,22.9
2019-06-08T14:46:31.921Z,22.8
2019-06-08T14:56:37.210Z,22.6
2019-06-08T15:06:40.983Z,22.4
2019-06-08T15:16:44.492Z,22.4
2019-06-08T15:26:48.653Z,22.4
2019-06-08T15:36:52.477Z,22.5
2019-06-08T15:46:58.370Z,22.3
2019-06-08T15:57:02.046Z,22.2
2019-06-08T16:07:05.675Z,22
2019-06-08T16:17:09.651Z,21.8
2019-06-08T16:27:13.076Z,21.7
2019-06-08T16:37:16.532Z,21.6
2019-06-08T16:57:28.853Z,21.5
2019-06-08T17:07:33.634Z,21.4
2019-06-08T17:17:38.459Z,21.2
2019-06-08T17:27:42.066Z,21.1
2019-06-08T17:37:45.521Z,21
2019-06-08T17:47:49.021Z,20.9
2019-06-08T17:57:53.594Z,20.8
2019-06-08T18:07:57.820Z,20.7
2019-06-08T18:18:01.432Z,20.7
2019-06-08T18:28:10.021Z,20.6
2019-06-08T18:38:17.884Z,20.5
2019-06-08T18:48:21.485Z,20.4
2019-06-08T18:58:25.286Z,20.3
2019-06-08T19:08:31.395Z,19.9
2019-06-08T19:18:34.843Z,19.8
2019-06-08T19:28:47.578Z,19.6
2019-06-08T19:38:57.836Z,19.4
2019-06-08T19:49:01.293Z,18.9
2019-06-08T19:59:07.804Z,18.9
2019-06-08T20:09:12.006Z,18.8
2019-06-08T20:19:17.550Z,18.8
2019-06-08T20:29:21.146Z,18.6
2019-06-08T20:39:24.589Z,18.4
2019-06-08T20:49:30.636Z,18.3
2019-06-08T20:59:34.483Z,18
2019-06-08T21:09:44.784Z,17.8
2019-06-08T21:19:58.204Z,17.7
2019-06-08T21:30:06.977Z,17.5
2019-06-08T21:40:28.289Z,17.5
2019-06-08T21:50:31.772Z,17.3
2019-06-08T22:00:40.202Z,17.2
2019-06-08T22:10:47.227Z,17
2019-06-08T22:20:51.739Z,16.9
2019-06-08T22:30:59.674Z,16.8
2019-06-08T22:41:05.222Z,16.6
2019-06-08T22:51:11.533Z,16.3
2019-06-08T23:01:14.976Z,16.3
2019-06-08T23:11:18.385Z,16.1
2019-06-08T23:21:21.810Z,16
2019-06-08T23:31:28.221Z,15.9
2019-06-08T23:41:32.641Z,15.8
2019-06-08T23:51:38.040Z,15.8
